createdAt,value
2023-05-05T00:00:42.261Z,-0.40
2023-05-05T00:01:47.671Z,-0.40
2023-05-05T00:02:51.796Z,-0.40
2023-05-05T00:03:53.971Z,-0.30
2023-05-05T00:04:59.349Z,-0.30
2023-05-05T00:06:05.680Z,-0.40
2023-05-05T00:07:10.885Z,-0.40
2023-05-05T00:08:12.938Z,-0.30
2023-05-05T00:09:20.308Z,-0.40
2023-05-05T00:10:27.430Z,-0.50
2023-05-05T00:11:34.817Z,-0.50
2023-05-05T00:12:44.238Z,-0.50
2023-05-05T00:13:52.109Z,-0.50
2023-05-05T00:14:53.973Z,-0.50
2023-05-05T00:15:56.036Z,-0.60
2023-05-05T00:17:01.545Z,-0.60
2023-05-05T00:18:09.422Z,-0.60
2023-05-05T00:19:22.904Z,-0.60
2023-05-05T00:20:26.305Z,-0.70
2023-05-05T00:21:31.315Z,-0.70
2023-05-05T00:22:34.112Z,-0.80
2023-05-05T00:23:38.394Z,-0.80
2023-05-05T00:24:42.456Z,-0.80
2023-05-05T00:25:47.117Z,-0.80
2023-05-05T00:26:49.006Z,-0.90
2023-05-05T00:27:52.365Z,-0.80
2023-05-05T00:28:57.273Z,-0.80
2023-05-05T00:29:59.231Z,-0.70
2023-05-05T00:31:02.742Z,-0.70
2023-05-05T00:32:04.835Z,-0.70
2023-05-05T00:33:06.924Z,-0.70
2023-05-05T00:34:08.892Z,-0.60
2023-05-05T00:35:11.078Z,-0.60
2023-05-05T00:36:15.647Z,-0.60
2023-05-05T00:37:20.752Z,-0.60
2023-05-05T00:38:25.220Z,-0.60
2023-05-05T00:39:27.104Z,-0.60
2023-05-05T00:40:45.494Z,-0.60
2023-05-05T00:41:50.649Z,-0.60
2023-05-05T00:42:54.024Z,-0.60
2023-05-05T00:43:58.929Z,-0.60
2023-05-05T00:45:06.902Z,-0.60
2023-05-05T00:46:18.449Z,-0.60
2023-05-05T00:47:24.554Z,-0.60
2023-05-05T00:48:27.431Z,-0.60
2023-05-05T00:49:29.857Z,-0.60
2023-05-05T00:50:31.877Z,-0.60
2023-05-05T00:51:33.937Z,-0.60
2023-05-05T00:52:36.229Z,-0.60
2023-05-05T00:53:39.785Z,-0.60
2023-05-05T00:54:41.885Z,-0.60
2023-05-05T00:55:43.843Z,-0.70
2023-05-05T00:56:45.949Z,-0.70
2023-05-05T00:57:48.297Z,-0.70
2023-05-05T00:58:51.773Z,-0.60
2023-05-05T00:59:57.728Z,-0.60
2023-05-05T01:01:03.058Z,-0.60
2023-05-05T01:02:06.271Z,-0.40
2023-05-05T01:03:08.251Z,-0.60
2023-05-05T01:04:13.314Z,-0.50
2023-05-05T01:05:16.689Z,-0.50
2023-05-05T01:06:25.178Z,-0.50
2023-05-05T01:07:36.861Z,-0.40
2023-05-05T01:08:44.927Z,-0.50
2023-05-05T01:09:57.987Z,-0.50
2023-05-05T01:11:11.310Z,-0.50
2023-05-05T01:12:20.233Z,-0.50
2023-05-05T01:13:25.848Z,-0.50
2023-05-05T01:14:35.119Z,-0.50
2023-05-05T01:15:45.422Z,-0.50
2023-05-05T01:16:56.435Z,-0.50
2023-05-05T01:18:06.968Z,-0.60
2023-05-05T01:19:15.457Z,-0.60
2023-05-05T01:20:20.984Z,-0.60
2023-05-05T01:21:27.159Z,-0.60
2023-05-05T01:22:35.103Z,-0.60
2023-05-05T01:23:52.485Z,-0.60
2023-05-05T01:25:08.536Z,-0.60
2023-05-05T01:26:24.596Z,-0.50
2023-05-05T01:27:34.511Z,-0.50
2023-05-05T01:28:51.486Z,-0.50
2023-05-05T01:30:05.836Z,-0.60
2023-05-05T01:32:39.214Z,-0.60
2023-05-05T01:33:45.234Z,-0.60
2023-05-05T01:34:54.283Z,-0.70
2023-05-05T01:36:08.267Z,-0.60
2023-05-05T01:37:17.178Z,-0.60
2023-05-05T01:38:24.705Z,-0.70
2023-05-05T01:39:29.544Z,-0.70
2023-05-05T01:40:34.753Z,-0.70
2023-05-05T01:41:42.273Z,-0.70
2023-05-05T01:42:44.727Z,-0.80
2023-05-05T01:43:49.935Z,-0.80
2023-05-05T01:44:53.459Z,-0.80
2023-05-05T01:45:55.816Z,-0.80
2023-05-05T01:46:59.395Z,-0.80
2023-05-05T01:48:03.014Z,-0.90
2023-05-05T01:49:05.565Z,-0.90
2023-05-05T01:50:12.347Z,-0.80
2023-05-05T01:51:18.762Z,-0.80
2023-05-05T01:52:25.777Z,-0.80
2023-05-05T01:53:28.360Z,-0.80
2023-05-05T01:54:35.477Z,-0.80
2023-05-05T01:55:39.171Z,-0.80
2023-05-05T01:56:41.353Z,-0.80
2023-05-05T01:57:44.826Z,-0.80
2023-05-05T01:58:47.325Z,-0.80
2023-05-05T01:59:50.516Z,-0.70
2023-05-05T02:00:53.991Z,-0.70
2023-05-05T02:02:03.272Z,-0.70
2023-05-05T02:03:13.068Z,-0.70
2023-05-05T02:04:18.086Z,-0.70
2023-05-05T02:05:23.967Z,-0.70
2023-05-05T02:06:27.496Z,-0.70
2023-05-05T02:07:34.197Z,-0.50
2023-05-05T02:08:38.536Z,-0.60
2023-05-05T02:09:41.612Z,-0.60
2023-05-05T02:10:45.047Z,-0.60
2023-05-05T02:11:47.517Z,-0.60
2023-05-05T02:12:51.292Z,-0.50
2023-05-05T02:13:54.714Z,-0.40
2023-05-05T02:14:59.282Z,-0.50
2023-05-05T02:16:04.403Z,-0.50
2023-05-05T02:17:13.527Z,-0.50
2023-05-05T02:18:18.816Z,-0.50
2023-05-05T02:19:31.011Z,-0.50
2023-05-05T02:20:39.475Z,-0.50
2023-05-05T02:21:51.765Z,-0.50
2023-05-05T02:22:54.248Z,-0.50
2023-05-05T02:23:56.781Z,-0.50
2023-05-05T02:24:59.178Z,-0.50
2023-05-05T02:26:05.091Z,-0.60
2023-05-05T02:27:07.877Z,-0.60
2023-05-05T02:28:13.476Z,-0.60
2023-05-05T02:29:21.246Z,-0.60
2023-05-05T02:30:29.724Z,-0.60
2023-05-05T02:31:36.216Z,-0.70
2023-05-05T02:32:43.215Z,-0.70
2023-05-05T02:33:49.804Z,-0.70
2023-05-05T02:34:54.784Z,-0.70
2023-05-05T02:35:57.986Z,-0.80
2023-05-05T02:37:04.882Z,-0.80
2023-05-05T02:38:14.849Z,-0.80
2023-05-05T02:39:21.979Z,-0.80
2023-05-05T02:40:25.299Z,-0.80
2023-05-05T02:41:31.095Z,-0.80
2023-05-05T02:42:38.119Z,-0.90
2023-05-05T02:43:42.631Z,-0.80
2023-05-05T02:44:50.376Z,-0.80
2023-05-05T02:45:55.487Z,-0.80
2023-05-05T02:46:58.142Z,-0.80
2023-05-05T02:48:05.168Z,-0.80
2023-05-05T02:49:14.375Z,-0.90
2023-05-05T02:50:20.949Z,-0.80
2023-05-05T02:51:30.302Z,-0.90
2023-05-05T02:52:33.525Z,-0.90
2023-05-05T02:53:36.630Z,-1.00
2023-05-05T02:54:41.313Z,-1.00
2023-05-05T02:55:50.235Z,-1.00
2023-05-05T02:56:54.555Z,-1.00
2023-05-05T02:58:01.184Z,-1.00
2023-05-05T02:59:08.970Z,-1.00
2023-05-05T03:00:15.101Z,-1.00
2023-05-05T03:01:29.852Z,-1.00
2023-05-05T03:02:39.438Z,-1.00
2023-05-05T03:03:46.351Z,-1.00
2023-05-05T03:04:56.657Z,-1.00
2023-05-05T03:06:02.649Z,-1.00
2023-05-05T03:07:07.969Z,-1.00
2023-05-05T03:08:17.292Z,-1.00
2023-05-05T03:09:24.868Z,-1.00
2023-05-05T03:10:31.734Z,-1.00
2023-05-05T03:11:37.243Z,-0.90
2023-05-05T03:12:44.141Z,-0.90
2023-05-05T03:13:53.818Z,-0.90
2023-05-05T03:14:58.341Z,-0.90
2023-05-05T03:16:04.638Z,-0.90
2023-05-05T03:17:07.008Z,-0.90
2023-05-05T03:18:11.834Z,-0.80
2023-05-05T03:19:16.414Z,-0.90
2023-05-05T03:20:29.291Z,-0.90
2023-05-05T03:21:32.977Z,-0.90
2023-05-05T03:22:37.818Z,-0.90
2023-05-05T03:23:41.428Z,-0.90
2023-05-05T03:24:50.161Z,-0.90
2023-05-05T03:25:54.862Z,-0.80
2023-05-05T03:26:57.685Z,-0.80
2023-05-05T03:27:59.584Z,-0.80
2023-05-05T03:29:02.767Z,-0.80
2023-05-05T03:30:05.841Z,-0.80
2023-05-05T03:31:13.218Z,-0.70
2023-05-05T03:32:16.932Z,-0.70
2023-05-05T03:33:22.802Z,-0.70
2023-05-05T03:34:49.732Z,-0.70
2023-05-05T03:35:54.146Z,-0.60
2023-05-05T03:36:59.158Z,-0.60
2023-05-05T03:38:01.311Z,-0.50
2023-05-05T03:39:04.286Z,-0.50
2023-05-05T03:40:14.331Z,-0.50
2023-05-05T03:41:16.400Z,-0.50
2023-05-05T03:42:18.439Z,-0.40
2023-05-05T03:43:21.100Z,-0.40
2023-05-05T03:44:24.629Z,-0.40
2023-05-05T03:45:27.342Z,-0.30
2023-05-05T03:46:29.381Z,-0.30
2023-05-05T03:47:43.516Z,-0.30
2023-05-05T03:48:57.356Z,-0.20
2023-05-05T03:50:05.265Z,-0.10
2023-05-05T03:51:13.697Z,0.20
2023-05-05T03:52:18.624Z,0.40
2023-05-05T03:53:20.658Z,0.50
2023-05-05T03:54:22.668Z,0.50
2023-05-05T03:55:27.771Z,0.50
2023-05-05T03:56:29.796Z,0.50
2023-05-05T03:57:34.166Z,0.60
2023-05-05T03:58:36.178Z,0.60
2023-05-05T03:59:38.122Z,0.60
2023-05-05T04:00:40.190Z,0.60
2023-05-05T04:01:42.217Z,0.60
2023-05-05T04:02:44.425Z,0.60
2023-05-05T04:03:46.537Z,0.60
2023-05-05T04:04:50.861Z,0.60
2023-05-05T04:05:52.938Z,0.70
2023-05-05T04:06:56.376Z,0.70
2023-05-05T04:08:01.022Z,0.70
2023-05-05T04:09:03.479Z,0.70
2023-05-05T04:10:08.916Z,0.80
2023-05-05T04:11:11.230Z,0.80
2023-05-05T04:12:13.539Z,0.80
2023-05-05T04:13:15.621Z,0.80
2023-05-05T04:14:17.605Z,0.80
2023-05-05T04:15:19.652Z,0.80
2023-05-05T04:16:21.697Z,0.90
2023-05-05T04:17:23.734Z,0.90
2023-05-05T04:18:25.909Z,0.90
2023-05-05T04:19:27.851Z,0.90
2023-05-05T04:20:29.930Z,1.00
2023-05-05T04:21:31.907Z,1.00
2023-05-05T04:22:35.337Z,1.10
2023-05-05T04:23:37.562Z,1.10
2023-05-05T04:24:39.572Z,1.10
2023-05-05T04:25:43.950Z,1.20
2023-05-05T04:26:46.378Z,1.20
2023-05-05T04:27:48.374Z,1.20
2023-05-05T04:28:50.503Z,1.30
2023-05-05T04:29:52.493Z,1.30
2023-05-05T04:30:54.445Z,1.30
2023-05-05T04:31:56.926Z,1.40
2023-05-05T04:32:59.079Z,1.50
2023-05-05T04:34:01.178Z,1.50
2023-05-05T04:35:03.063Z,1.50
2023-05-05T04:36:05.175Z,1.60
2023-05-05T04:37:07.256Z,1.70
2023-05-05T04:38:10.658Z,1.80
2023-05-05T04:39:12.720Z,1.90
2023-05-05T04:40:14.772Z,1.90
2023-05-05T04:41:16.735Z,2.00
2023-05-05T04:42:18.799Z,2.00
2023-05-05T04:43:21.036Z,2.10
2023-05-05T04:44:23.066Z,2.10
2023-05-05T04:45:25.211Z,2.20
2023-05-05T04:46:27.138Z,2.20
2023-05-05T04:47:29.392Z,2.30
2023-05-05T04:48:31.423Z,2.30
2023-05-05T04:49:33.837Z,2.40
2023-05-05T04:50:37.082Z,2.40
2023-05-05T04:51:40.949Z,2.50
2023-05-05T04:52:42.899Z,2.60
2023-05-05T04:53:46.550Z,2.60
2023-05-05T04:54:49.598Z,2.70
2023-05-05T04:55:51.670Z,2.70
2023-05-05T04:56:54.056Z,2.80
2023-05-05T04:57:56.010Z,2.90
2023-05-05T04:58:57.883Z,3.00
2023-05-05T05:00:00.408Z,3.10
2023-05-05T05:01:02.449Z,3.10
2023-05-05T05:02:04.680Z,3.20
2023-05-05T05:03:08.258Z,3.30
2023-05-05T05:04:14.104Z,3.30
2023-05-05T05:05:21.246Z,3.40
2023-05-05T05:06:26.731Z,3.50
2023-05-05T05:07:31.865Z,3.50
2023-05-05T05:08:39.271Z,3.60
2023-05-05T05:09:42.699Z,3.60
2023-05-05T05:10:45.269Z,3.70
2023-05-05T05:11:49.950Z,3.70
2023-05-05T05:12:52.044Z,3.70
2023-05-05T05:13:54.325Z,3.80
2023-05-05T05:14:56.404Z,3.80
2023-05-05T05:15:58.424Z,3.80
2023-05-05T05:17:00.385Z,3.90
2023-05-05T05:18:02.339Z,3.90
2023-05-05T05:19:04.274Z,4.00
2023-05-05T05:20:07.384Z,4.00
2023-05-05T05:21:10.564Z,4.10
2023-05-05T05:22:13.047Z,4.10
2023-05-05T05:23:15.022Z,4.20
2023-05-05T05:24:16.903Z,4.30
2023-05-05T05:25:20.410Z,4.30
2023-05-05T05:26:22.812Z,4.30
2023-05-05T05:27:24.723Z,4.40
2023-05-05T05:28:26.766Z,4.40
2023-05-05T05:29:28.871Z,4.50
2023-05-05T05:30:35.134Z,4.60
2023-05-05T05:31:37.224Z,4.70
2023-05-05T05:32:39.144Z,4.80
2023-05-05T05:33:41.101Z,4.90
2023-05-05T05:34:43.031Z,5.00
2023-05-05T05:35:44.942Z,5.00
2023-05-05T05:36:46.838Z,5.10
2023-05-05T05:37:50.885Z,5.10
2023-05-05T05:38:52.801Z,5.10
2023-05-05T05:39:54.737Z,5.20
2023-05-05T05:40:58.133Z,5.20
2023-05-05T05:42:00.113Z,5.20
2023-05-05T05:43:02.962Z,5.20
2023-05-05T05:44:05.007Z,5.20
2023-05-05T05:45:07.755Z,5.30
2023-05-05T05:46:09.636Z,5.20
2023-05-05T05:47:11.640Z,5.20
2023-05-05T05:48:13.514Z,5.20
2023-05-05T05:49:16.395Z,5.10
2023-05-05T05:50:18.401Z,5.10
2023-05-05T05:51:20.436Z,5.10
2023-05-05T05:52:22.726Z,5.10
2023-05-05T05:53:24.679Z,5.10
2023-05-05T05:54:26.666Z,5.00
2023-05-05T05:55:28.776Z,5.00
2023-05-05T05:56:32.155Z,5.00
2023-05-05T05:57:34.069Z,5.00
2023-05-05T05:58:36.097Z,5.00
2023-05-05T05:59:38.017Z,5.00
2023-05-05T06:00:39.890Z,5.00
2023-05-05T06:01:41.869Z,5.00
2023-05-05T06:02:43.852Z,5.00
2023-05-05T06:03:46.058Z,5.00
2023-05-05T06:04:48.220Z,5.10
2023-05-05T06:05:50.630Z,5.10
2023-05-05T06:06:52.595Z,5.00
2023-05-05T06:07:54.546Z,5.00
2023-05-05T06:08:56.504Z,5.00
2023-05-05T06:09:59.287Z,5.00
2023-05-05T06:11:03.451Z,5.10
2023-05-05T06:12:09.100Z,5.10
2023-05-05T06:13:11.233Z,5.10
2023-05-05T06:14:13.272Z,5.10
2023-05-05T06:15:15.308Z,5.20
2023-05-05T06:16:17.393Z,5.20
2023-05-05T06:17:19.366Z,5.20
2023-05-05T06:18:21.377Z,5.20
2023-05-05T06:19:23.551Z,5.30
2023-05-05T06:20:45.709Z,5.30
2023-05-05T06:21:52.223Z,5.30
2023-05-05T06:22:54.190Z,5.30
2023-05-05T06:23:56.146Z,5.30
2023-05-05T06:24:58.057Z,5.30
2023-05-05T06:25:59.938Z,5.40
2023-05-05T06:27:02.473Z,5.40
2023-05-05T06:28:05.891Z,5.50
2023-05-05T06:29:08.258Z,5.50
2023-05-05T06:30:11.562Z,5.50
2023-05-05T06:31:14.421Z,5.50
2023-05-05T06:32:16.437Z,5.60
2023-05-05T06:33:18.346Z,5.50
2023-05-05T06:34:20.387Z,5.60
2023-05-05T06:35:22.400Z,5.50
2023-05-05T06:36:24.385Z,5.50
2023-05-05T06:37:26.425Z,5.50
2023-05-05T06:38:28.276Z,5.50
2023-05-05T06:39:30.745Z,5.50
2023-05-05T06:40:32.617Z,5.50
2023-05-05T06:41:34.512Z,5.60
2023-05-05T06:42:36.942Z,5.60
2023-05-05T06:43:41.353Z,5.60
2023-05-05T06:44:43.224Z,5.60
2023-05-05T06:45:45.460Z,5.70
2023-05-05T06:46:47.484Z,5.70
2023-05-05T06:47:49.673Z,5.80
2023-05-05T06:48:51.646Z,6.00
2023-05-05T06:49:53.830Z,6.00
2023-05-05T06:50:57.113Z,6.00
2023-05-05T06:52:02.002Z,6.00
2023-05-05T06:53:04.455Z,6.10
2023-05-05T06:54:06.661Z,6.20
2023-05-05T06:55:09.725Z,6.30
2023-05-05T06:56:11.698Z,6.30
2023-05-05T06:57:13.641Z,6.40
2023-05-05T06:58:15.585Z,6.50
2023-05-05T06:59:19.008Z,6.60
2023-05-05T07:00:22.183Z,6.80
2023-05-05T07:01:24.173Z,6.80
2023-05-05T07:02:27.050Z,6.90
2023-05-05T07:03:29.030Z,7.00
2023-05-05T07:04:31.666Z,7.00
2023-05-05T07:05:33.571Z,7.00
2023-05-05T07:06:35.562Z,6.90
2023-05-05T07:07:38.357Z,7.00
2023-05-05T07:08:40.231Z,7.00
2023-05-05T07:09:42.272Z,7.00
2023-05-05T07:10:44.354Z,7.10
2023-05-05T07:11:46.481Z,7.20
2023-05-05T07:12:48.573Z,7.30
2023-05-05T07:13:50.502Z,7.30
2023-05-05T07:14:53.811Z,7.30
2023-05-05T07:15:55.798Z,7.30
2023-05-05T07:16:58.588Z,7.30
2023-05-05T07:18:00.858Z,7.30
2023-05-05T07:19:07.777Z,7.30
2023-05-05T07:20:10.816Z,7.20
2023-05-05T07:21:12.971Z,7.10
2023-05-05T07:22:14.937Z,7.10
2023-05-05T07:23:16.872Z,7.10
2023-05-05T07:24:19.107Z,7.00
2023-05-05T07:25:21.265Z,6.90
2023-05-05T07:26:23.316Z,6.80
2023-05-05T07:27:25.394Z,6.80
2023-05-05T07:28:27.327Z,6.70
2023-05-05T07:29:32.128Z,6.70
2023-05-05T07:30:36.899Z,6.70
2023-05-05T07:31:38.831Z,6.70
2023-05-05T07:32:40.898Z,6.70
2023-05-05T07:33:42.829Z,6.60
2023-05-05T07:34:47.771Z,6.70
2023-05-05T07:35:49.762Z,6.70
2023-05-05T07:36:51.821Z,6.70
2023-05-05T07:37:53.776Z,6.70
2023-05-05T07:38:55.851Z,6.70
2023-05-05T07:39:57.741Z,6.70
2023-05-05T07:40:59.678Z,6.70
2023-05-05T07:42:01.843Z,6.70
2023-05-05T07:43:06.212Z,6.70
2023-05-05T07:44:08.274Z,6.70
2023-05-05T07:45:10.656Z,6.70
2023-05-05T07:46:14.096Z,6.60
2023-05-05T07:47:16.455Z,6.60
2023-05-05T07:48:22.666Z,6.60
2023-05-05T07:49:24.924Z,6.60
2023-05-05T07:50:27.359Z,6.60
2023-05-05T07:51:30.022Z,6.70
2023-05-05T07:52:44.986Z,6.70
2023-05-05T07:53:52.980Z,6.70
2023-05-05T07:54:54.880Z,6.70
2023-05-05T07:55:56.779Z,6.80
2023-05-05T07:57:02.352Z,6.80
2023-05-05T07:58:04.645Z,6.90
2023-05-05T07:59:06.658Z,7.00
2023-05-05T08:00:15.109Z,7.10
2023-05-05T08:01:18.793Z,7.10
2023-05-05T08:02:24.490Z,7.20
2023-05-05T08:03:26.932Z,7.20
2023-05-05T08:04:29.493Z,7.10
2023-05-05T08:05:33.124Z,7.10
2023-05-05T08:06:35.111Z,7.10
2023-05-05T08:07:41.292Z,7.10
2023-05-05T08:08:44.790Z,7.10
2023-05-05T08:09:49.654Z,7.10
2023-05-05T08:10:53.074Z,7.00
2023-05-05T08:11:55.148Z,6.90
2023-05-05T08:12:57.234Z,6.90
2023-05-05T08:13:59.172Z,6.90
2023-05-05T08:15:01.189Z,6.80
2023-05-05T08:16:03.113Z,6.90
2023-05-05T08:17:08.478Z,6.90
2023-05-05T08:18:10.430Z,6.90
2023-05-05T08:19:27.612Z,7.00
2023-05-05T08:20:30.582Z,7.00
2023-05-05T08:21:32.477Z,7.00
2023-05-05T08:22:34.436Z,7.10
2023-05-05T08:23:37.392Z,7.00
2023-05-05T08:24:41.842Z,6.90
2023-05-05T08:25:44.277Z,6.90
2023-05-05T08:26:46.308Z,6.70
2023-05-05T08:27:53.755Z,6.70
2023-05-05T08:29:00.832Z,6.60
2023-05-05T08:30:03.063Z,6.60
2023-05-05T08:31:05.663Z,6.60
2023-05-05T08:32:09.096Z,6.60
2023-05-05T08:33:12.246Z,6.50
2023-05-05T08:34:14.196Z,6.60
2023-05-05T08:35:16.130Z,6.70
2023-05-05T08:36:18.091Z,6.70
2023-05-05T08:37:20.060Z,6.60
2023-05-05T08:38:21.920Z,6.60
2023-05-05T08:39:23.881Z,6.60
2023-05-05T08:40:29.516Z,6.60
2023-05-05T08:41:31.441Z,6.70
2023-05-05T08:42:38.738Z,6.80
2023-05-05T08:43:43.022Z,6.90
2023-05-05T08:44:44.971Z,6.90
2023-05-05T08:45:47.295Z,7.00
2023-05-05T08:46:49.797Z,7.00
2023-05-05T08:47:53.610Z,7.10
2023-05-05T08:48:56.301Z,7.10
2023-05-05T08:49:59.386Z,7.20
2023-05-05T08:51:05.437Z,7.20
2023-05-05T08:52:09.922Z,7.30
2023-05-05T08:53:15.548Z,7.30
2023-05-05T08:54:19.803Z,7.30
2023-05-05T08:55:24.326Z,7.30
2023-05-05T08:56:30.074Z,7.40
2023-05-05T08:57:35.604Z,7.40
2023-05-05T08:58:37.701Z,7.30
2023-05-05T08:59:39.889Z,7.20
2023-05-05T09:00:43.160Z,7.20
2023-05-05T09:01:45.126Z,7.00
2023-05-05T09:02:47.298Z,7.00
2023-05-05T09:03:52.552Z,6.90
2023-05-05T09:04:54.818Z,6.90
2023-05-05T09:05:57.229Z,6.90
2023-05-05T09:06:59.815Z,6.90
2023-05-05T09:08:02.089Z,6.90
2023-05-05T09:09:05.065Z,7.00
2023-05-05T09:10:08.226Z,7.10
2023-05-05T09:11:10.227Z,7.20
2023-05-05T09:12:12.248Z,7.20
2023-05-05T09:13:26.770Z,7.10
2023-05-05T09:14:28.568Z,7.10
2023-05-05T09:15:30.843Z,7.20
2023-05-05T09:16:32.753Z,7.20
2023-05-05T09:17:34.627Z,7.20
2023-05-05T09:18:37.091Z,7.10
2023-05-05T09:19:53.783Z,7.00
2023-05-05T09:20:59.396Z,6.90
2023-05-05T09:22:01.951Z,6.90
2023-05-05T09:23:10.307Z,7.00
2023-05-05T09:24:13.168Z,7.10
2023-05-05T09:25:15.665Z,7.20
2023-05-05T09:26:17.574Z,7.20
2023-05-05T09:27:21.812Z,7.30
2023-05-05T09:28:23.929Z,7.30
2023-05-05T09:29:26.122Z,7.30
2023-05-05T09:30:28.052Z,7.30
2023-05-05T09:31:30.398Z,7.20
2023-05-05T09:32:43.210Z,7.20
2023-05-05T09:33:46.130Z,7.30
2023-05-05T09:34:57.178Z,7.40
2023-05-05T09:36:02.023Z,7.40
2023-05-05T09:37:04.050Z,7.50
2023-05-05T09:38:12.674Z,7.50
2023-05-05T09:39:15.079Z,7.50
2023-05-05T09:40:18.060Z,7.50
2023-05-05T09:41:36.231Z,7.60
2023-05-05T09:42:38.959Z,7.70
2023-05-05T09:43:50.289Z,7.60
2023-05-05T09:44:52.328Z,7.50
2023-05-05T09:46:05.250Z,7.40
2023-05-05T09:47:18.177Z,7.40
2023-05-05T09:48:29.122Z,7.30
2023-05-05T09:49:31.124Z,7.30
2023-05-05T09:50:42.498Z,7.30
2023-05-05T09:51:46.319Z,7.30
2023-05-05T09:52:55.152Z,7.30
2023-05-05T09:53:57.396Z,7.30
2023-05-05T09:54:59.418Z,7.30
2023-05-05T09:56:01.428Z,7.20
2023-05-05T09:57:03.296Z,7.10
2023-05-05T09:58:18.527Z,7.10
2023-05-05T09:59:21.217Z,7.30
2023-05-05T10:00:37.550Z,7.30
2023-05-05T10:01:39.792Z,7.30
2023-05-05T10:02:42.180Z,7.30
2023-05-05T10:03:49.919Z,7.50
2023-05-05T10:05:04.250Z,7.50
2023-05-05T10:06:07.935Z,7.50
2023-05-05T10:07:22.286Z,7.50
2023-05-05T10:08:25.150Z,7.40
2023-05-05T10:09:27.363Z,7.30
2023-05-05T10:10:29.398Z,7.40
2023-05-05T10:11:31.859Z,7.30
2023-05-05T10:12:35.151Z,7.30
2023-05-05T10:13:42.500Z,7.30
2023-05-05T10:16:08.400Z,7.30
2023-05-05T10:17:10.592Z,7.30
2023-05-05T10:18:13.886Z,7.40
2023-05-05T10:19:16.824Z,7.50
2023-05-05T10:20:20.240Z,7.60
2023-05-05T10:21:27.490Z,7.50
2023-05-05T10:22:33.307Z,7.30
2023-05-05T10:23:38.196Z,7.30
2023-05-05T10:24:44.357Z,7.50
2023-05-05T10:25:50.465Z,7.50
2023-05-05T10:26:56.345Z,7.50
2023-05-05T10:27:59.656Z,7.50
2023-05-05T10:29:02.611Z,7.40
2023-05-05T10:30:05.491Z,7.50
2023-05-05T10:31:20.466Z,7.50
2023-05-05T10:33:42.436Z,7.50
2023-05-05T10:34:49.900Z,7.40
2023-05-05T10:35:53.321Z,7.50
2023-05-05T10:36:57.098Z,7.50
2023-05-05T10:38:01.185Z,7.60
2023-05-05T10:39:03.358Z,7.50
2023-05-05T10:40:06.091Z,7.60
2023-05-05T10:41:10.271Z,7.60
2023-05-05T10:42:13.427Z,7.70
2023-05-05T10:43:15.374Z,7.80
2023-05-05T10:44:17.665Z,7.80
2023-05-05T10:45:20.014Z,7.90
2023-05-05T10:46:24.684Z,8.00
2023-05-05T10:47:27.289Z,8.00
2023-05-05T10:48:33.159Z,8.10
2023-05-05T10:49:42.382Z,8.20
2023-05-05T10:50:47.609Z,8.20
2023-05-05T10:51:52.739Z,8.20
2023-05-05T10:53:07.811Z,8.40
2023-05-05T10:54:16.070Z,8.70
2023-05-05T10:55:21.850Z,8.70
2023-05-05T10:56:30.288Z,8.70
2023-05-05T10:57:35.339Z,8.60
2023-05-05T10:58:58.937Z,8.70
2023-05-05T11:00:02.263Z,8.90
2023-05-05T11:01:05.506Z,9.10
2023-05-05T11:02:25.016Z,9.10
2023-05-05T11:03:27.505Z,9.00
2023-05-05T11:04:31.181Z,8.90
2023-05-05T11:05:34.440Z,9.00
2023-05-05T11:06:39.279Z,9.00
2023-05-05T11:07:59.603Z,8.90
2023-05-05T11:09:29.715Z,8.80
2023-05-05T11:10:46.601Z,8.80
2023-05-05T11:12:05.527Z,8.70
2023-05-05T11:13:20.118Z,8.70
2023-05-05T11:14:22.634Z,8.60
2023-05-05T11:15:37.750Z,8.60
2023-05-05T11:16:45.512Z,8.60
2023-05-05T11:17:48.325Z,8.70
2023-05-05T11:18:50.774Z,8.70
2023-05-05T11:19:53.641Z,8.70
2023-05-05T11:21:15.703Z,8.70
2023-05-05T11:22:20.008Z,8.60
2023-05-05T11:23:22.896Z,8.60
2023-05-05T11:24:32.022Z,8.60
2023-05-05T11:25:47.292Z,8.80
2023-05-05T11:26:51.710Z,9.00
2023-05-05T11:28:07.036Z,9.00
2023-05-05T11:29:09.250Z,9.00
2023-05-05T11:30:12.894Z,8.80
2023-05-05T11:31:19.890Z,8.70
2023-05-05T11:32:27.590Z,8.70
2023-05-05T11:33:31.333Z,8.70
2023-05-05T11:34:33.613Z,8.70
2023-05-05T11:35:56.598Z,8.90
2023-05-05T11:37:03.339Z,9.10
2023-05-05T11:38:08.267Z,9.30
2023-05-05T11:39:21.395Z,9.40
2023-05-05T11:40:28.816Z,9.20
2023-05-05T11:42:21.834Z,9.10
2023-05-05T11:43:24.302Z,9.20
2023-05-05T11:44:35.930Z,9.10
2023-05-05T11:45:38.392Z,9.00
2023-05-05T11:47:22.625Z,8.90
2023-05-05T11:48:26.220Z,9.00
2023-05-05T11:49:29.577Z,8.70
2023-05-05T11:50:34.949Z,8.80
2023-05-05T11:51:37.523Z,8.80
2023-05-05T11:52:43.909Z,8.90
2023-05-05T11:53:47.573Z,9.00
2023-05-05T11:54:50.557Z,9.00
2023-05-05T11:56:10.490Z,9.10
2023-05-05T11:57:12.994Z,9.20
2023-05-05T11:58:21.470Z,9.30
2023-05-05T11:59:23.733Z,9.30
2023-05-05T12:00:33.389Z,9.20
2023-05-05T12:01:39.271Z,9.30
2023-05-05T12:02:41.776Z,9.30
2023-05-05T12:03:45.840Z,9.30
2023-05-05T12:04:49.350Z,9.20
2023-05-05T12:05:54.654Z,9.10
2023-05-05T12:06:58.751Z,9.10
2023-05-05T12:08:02.022Z,9.00
2023-05-05T12:09:06.617Z,9.00
2023-05-05T12:10:11.757Z,9.10
2023-05-05T12:11:18.428Z,9.30
2023-05-05T12:12:33.995Z,9.30
2023-05-05T12:13:50.473Z,9.30
2023-05-05T12:14:56.657Z,9.20
2023-05-05T12:16:10.125Z,9.30
2023-05-05T12:17:13.153Z,9.10
2023-05-05T12:18:21.625Z,9.00
2023-05-05T12:19:39.205Z,8.80
2023-05-05T12:20:44.417Z,8.70
2023-05-05T12:21:47.895Z,8.70
2023-05-05T12:22:50.120Z,8.70
2023-05-05T12:23:52.674Z,8.70
2023-05-05T12:24:56.515Z,8.70
2023-05-05T12:25:58.908Z,8.70
2023-05-05T12:27:14.249Z,8.80
2023-05-05T12:28:16.643Z,9.00
2023-05-05T12:29:24.439Z,9.10
2023-05-05T12:30:26.680Z,9.10
2023-05-05T12:31:37.795Z,9.10
2023-05-05T12:32:42.443Z,9.70
2023-05-05T12:33:45.413Z,10.80
2023-05-05T12:34:48.217Z,11.90
2023-05-05T12:35:52.763Z,12.90
2023-05-05T12:36:55.097Z,13.30
2023-05-05T12:37:58.614Z,13.40
2023-05-05T12:39:02.008Z,13.40
2023-05-05T12:40:06.633Z,13.60
2023-05-05T12:41:17.602Z,13.70
2023-05-05T12:42:21.963Z,13.80
2023-05-05T12:43:27.216Z,14.10
2023-05-05T12:44:35.967Z,14.40
2023-05-05T12:45:38.249Z,14.50
2023-05-05T12:46:47.695Z,14.70
2023-05-05T12:47:52.196Z,15.00
2023-05-05T12:49:01.914Z,14.80
2023-05-05T12:50:04.671Z,14.90
2023-05-05T12:51:15.155Z,15.00
2023-05-05T12:52:17.915Z,15.20
2023-05-05T12:53:23.733Z,15.10
2023-05-05T12:54:29.646Z,15.60
2023-05-05T12:55:39.862Z,15.50
2023-05-05T12:56:44.089Z,15.30
2023-05-05T12:58:04.736Z,15.40
2023-05-05T12:59:09.574Z,15.40
2023-05-05T13:00:16.304Z,15.40
2023-05-05T13:01:18.583Z,15.40
2023-05-05T13:02:21.190Z,15.60
2023-05-05T13:03:23.786Z,15.60
2023-05-05T13:04:27.488Z,15.60
2023-05-05T13:05:31.611Z,15.60
2023-05-05T13:06:38.836Z,16.00
2023-05-05T13:07:50.987Z,15.90
2023-05-05T13:08:53.341Z,16.20
2023-05-05T13:10:07.755Z,16.00
2023-05-05T13:11:10.188Z,15.80
2023-05-05T13:12:12.614Z,15.70
2023-05-05T13:13:17.943Z,15.70
2023-05-05T13:14:23.069Z,15.80
2023-05-05T13:15:26.156Z,15.60
2023-05-05T13:16:30.734Z,15.70
2023-05-05T13:17:34.781Z,15.80
2023-05-05T13:18:44.549Z,15.70
2023-05-05T13:19:46.841Z,16.00
2023-05-05T13:20:49.151Z,16.00
2023-05-05T13:21:51.908Z,16.10
2023-05-05T13:22:54.196Z,16.20
2023-05-05T13:24:08.331Z,16.00
2023-05-05T13:25:21.560Z,15.70
2023-05-05T13:26:24.975Z,15.90
2023-05-05T13:27:27.236Z,15.80
2023-05-05T13:28:30.968Z,16.10
2023-05-05T13:29:39.903Z,16.00
2023-05-05T13:30:43.154Z,15.60
2023-05-05T13:31:47.141Z,15.50
2023-05-05T13:32:49.632Z,15.30
2023-05-05T13:33:52.003Z,15.40
2023-05-05T13:34:54.548Z,15.80
2023-05-05T13:35:59.592Z,15.90
2023-05-05T13:37:01.856Z,15.90
2023-05-05T13:38:04.098Z,15.80
2023-05-05T13:39:07.342Z,15.80
2023-05-05T13:40:12.664Z,16.00
2023-05-05T13:41:20.630Z,16.00
2023-05-05T13:42:26.305Z,16.00
2023-05-05T13:43:41.180Z,15.80
2023-05-05T13:44:50.832Z,15.70
2023-05-05T13:45:53.698Z,15.50
2023-05-05T13:46:56.067Z,15.20
2023-05-05T13:47:58.549Z,15.00
2023-05-05T13:49:01.808Z,14.90
2023-05-05T13:50:05.116Z,15.10
2023-05-05T13:51:13.711Z,15.50
2023-05-05T13:52:21.439Z,15.50
2023-05-05T13:53:23.801Z,15.90
2023-05-05T13:54:28.994Z,15.90
2023-05-05T13:55:33.290Z,15.50
2023-05-05T13:56:41.871Z,15.60
2023-05-05T13:57:44.318Z,15.50
2023-05-05T13:58:48.167Z,15.70
2023-05-05T13:59:50.736Z,15.60
2023-05-05T14:00:53.828Z,15.60
2023-05-05T14:02:01.104Z,15.60
2023-05-05T14:03:06.387Z,15.60
2023-05-05T14:04:09.166Z,15.50
2023-05-05T14:05:12.761Z,15.40
2023-05-05T14:06:15.080Z,15.40
2023-05-05T14:07:19.505Z,15.20
2023-05-05T14:08:24.324Z,15.20
2023-05-05T14:09:26.820Z,15.30
2023-05-05T14:10:31.661Z,15.40
2023-05-05T14:11:37.083Z,15.60
2023-05-05T14:12:43.356Z,15.70
2023-05-05T14:13:47.718Z,15.60
2023-05-05T14:14:53.422Z,15.60
2023-05-05T14:15:58.502Z,15.90
2023-05-05T14:17:04.000Z,15.60
2023-05-05T14:18:06.804Z,15.50